Time;durP1;ratioP1;P1;durP2;ratioP2;P2;SDS_P1;SDS_P2;PMS_P1;PMS_P2;Temp;Humidity;BMP_temperature;BMP_pressure;BME280_temperature;BME280_humidity;BME280_pressure;Samples;Min_cycle;Max_cycle;Signal;HPM_P1;HPM_P2
2023/03/19 00:02:22;;;;;;;22.60;15.80;;;;;;;3.49;52.50;99540.15;435682;1259;124941;-68
2023/03/19 00:12:28;;;;;;;24.70;16.10;;;;;;;3.27;53.14;99541.62;435323;1254;138547;-67
2023/03/19 00:22:33;;;;;;;24.70;14.40;;;;;;;3.06;53.28;99548.04;435183;1254;138741;-67
2023/03/19 00:32:39;;;;;;;25.60;15.00;;;;;;;2.92;53.59;99555.39;435286;1254;138752;-68
2023/03/19 00:42:45;;;;;;;24.50;14.50;;;;;;;2.87;53.71;99560.77;435368;1254;138408;-67
2023/03/19 00:52:52;;;;;;;24.30;16.00;;;;;;;2.73;53.94;99558.63;435780;1254;139704;-68
2023/03/19 01:02:57;;;;;;;19.80;12.50;;;;;;;2.62;54.36;99555.50;435493;1256;138231;-67
2023/03/19 01:13:03;;;;;;;18.40;12.80;;;;;;;2.50;54.56;99549.67;435070;1254;206682;-68
2023/03/19 01:23:09;;;;;;;23.70;13.30;;;;;;;2.28;55.14;99544.30;435453;1256;138788;-67
2023/03/19 01:33:15;;;;;;;19.80;12.60;;;;;;;2.21;55.59;99552.42;435280;1259;139550;-69
2023/03/19 01:43:22;;;;;;;21.40;14.00;;;;;;;2.23;55.64;99553.76;436043;1256;138693;-68
2023/03/19 01:53:31;;;;;;;21.10;13.20;;;;;;;2.06;55.96;99554.23;435095;1259;138178;-68
2023/03/19 02:03:39;;;;;;;20.40;14.30;;;;;;;2.02;56.07;99556.30;434529;1256;138741;-68
2023/03/19 02:13:45;;;;;;;26.20;14.20;;;;;;;1.94;56.31;99561.33;434901;1256;138829;-69
2023/03/19 02:23:59;;;;;;;22.50;15.70;;;;;;;1.80;56.46;99559.66;435456;1258;139667;-68
2023/03/19 02:34:27;;;;;;;21.40;14.60;;;;;;;1.64;56.77;99556.50;434657;1259;139495;-68
2023/03/19 02:44:33;;;;;;;18.80;13.70;;;;;;;1.62;57.01;99563.30;435055;1256;138559;-67
2023/03/19 02:54:39;;;;;;;22.60;13.90;;;;;;;1.56;57.22;99559.64;434459;1257;139363;-67
2023/03/19 03:04:45;;;;;;;18.30;12.20;;;;;;;1.56;57.40;99555.14;434191;1256;140214;-67
2023/03/19 03:14:51;;;;;;;29.80;14.10;;;;;;;1.59;57.40;99555.59;434669;1258;139780;-67
2023/03/19 03:24:56;;;;;;;18.70;12.80;;;;;;;1.51;57.61;99556.83;434478;1259;139424;-68
2023/03/19 03:35:04;;;;;;;22.80;12.70;;;;;;;1.32;58.05;99561.31;434518;1256;139342;-66
2023/03/19 03:45:11;;;;;;;24.70;13.40;;;;;;;1.14;58.40;99561.63;434617;1256;139236;-67
2023/03/19 03:55:17;;;;;;;24.30;14.60;;;;;;;1.11;58.48;99563.56;434635;1255;138723;-67
2023/03/19 04:05:23;;;;;;;23.40;16.40;;;;;;;0.92;58.96;99564.90;434429;1256;138869;-66
2023/03/19 04:15:29;;;;;;;19.10;12.30;;;;;;;0.59;59.74;99578.61;434729;1260;139838;-69
2023/03/19 04:25:35;;;;;;;21.50;14.90;;;;;;;0.45;60.21;99582.02;434506;1256;138455;-68
2023/03/19 04:35:41;;;;;;;25.00;16.30;;;;;;;0.24;60.66;99578.86;434591;1259;140009;-67
2023/03/19 04:45:46;;;;;;;20.70;15.10;;;;;;;0.07;61.26;99567.88;434450;1256;139626;-67
2023/03/19 04:55:52;;;;;;;26.30;16.90;;;;;;;0.06;61.85;99567.71;434502;1260;138761;-68
2023/03/19 05:05:58;;;;;;;21.50;14.00;;;;;;;0.21;62.16;99564.14;435984;1255;139832;-68
2023/03/19 05:16:05;;;;;;;26.40;15.90;;;;;;;0.77;61.98;99565.77;434698;1256;139351;-68
2023/03/19 05:26:10;;;;;;;;;;;;;;;1.56;61.45;99561.85;434518;1256;138920;-68
2023/03/19 05:36:16;;;;;;;23.20;13.00;;;;;;;2.69;60.05;99554.55;434286;1256;125757;-67
2023/03/19 05:46:23;;;;;;;17.50;11.60;;;;;;;3.91;58.52;99559.58;434917;1259;138714;-66
2023/03/19 05:56:29;;;;;;;21.00;11.60;;;;;;;6.72;56.01;99559.34;435847;1259;138726;-67
2023/03/19 06:06:35;;;;;;;17.60;12.70;;;;;;;8.27;52.61;99567.48;435223;1257;138750;-67
2023/03/19 06:16:41;;;;;;;18.30;13.20;;;;;;;11.41;50.50;99567.45;434158;1260;138989;-66
2023/03/19 06:26:47;;;;;;;20.10;15.00;;;;;;;15.60;45.92;99555.33;434836;1256;139610;-67
2023/03/19 06:36:53;;;;;;;19.40;15.70;;;;;;;17.73;42.70;99554.58;434341;1259;139299;-66
2023/03/19 06:46:59;;;;;;;18.00;13.90;;;;;;;21.83;39.52;99550.33;434451;1256;139730;-68
2023/03/19 06:57:05;;;;;;;12.50;10.80;;;;;;;24.44;35.97;99557.38;435097;1257;138588;-71
2023/03/19 07:07:11;;;;;;;11.30;10.00;;;;;;;24.69;33.64;99563.11;435179;1259;139064;-66
2023/03/19 07:17:17;;;;;;;12.70;10.70;;;;;;;24.69;31.77;99561.07;435518;1258;139247;-66
2023/03/19 07:27:22;;;;;;;12.30;10.20;;;;;;;23.05;31.43;99565.51;434841;1256;138910;-67
2023/03/19 07:37:28;;;;;;;11.50;9.10;;;;;;;23.40;31.31;99569.02;434961;1260;138629;-67
2023/03/19 07:47:34;;;;;;;10.70;9.50;;;;;;;28.02;29.56;99566.23;434332;1260;139503;-67
2023/03/19 07:57:40;;;;;;;10.70;9.60;;;;;;;29.42;27.65;99569.22;434469;1260;138556;-68
2023/03/19 08:07:48;;;;;;;10.00;8.70;;;;;;;28.47;27.13;99569.92;434445;1256;138567;-69
2023/03/19 08:18:00;;;;;;;10.00;8.90;;;;;;;28.47;26.57;99566.09;437536;1257;138907;-67
2023/03/19 08:28:08;;;;;;;11.30;9.00;;;;;;;28.41;26.38;99562.75;435369;1255;138987;-67
2023/03/19 08:38:14;;;;;;;9.80;8.80;;;;;;;31.68;25.37;99551.12;435284;1257;138381;-67
2023/03/19 08:48:20;;;;;;;9.10;8.20;;;;;;;35.29;24.01;99545.61;434941;1259;139640;-68
2023/03/19 08:58:27;;;;;;;9.10;8.20;;;;;;;36.08;22.93;99538.67;434999;1258;138830;-68
2023/03/19 09:08:33;;;;;;;9.20;8.10;;;;;;;35.78;22.08;99537.10;435258;1259;139530;-68
2023/03/19 09:18:39;;;;;;;9.70;8.20;;;;;;;28.78;22.76;99548.65;436333;1256;140129;-67
2023/03/19 09:28:45;;;;;;;8.50;7.50;;;;;;;23.31;25.47;99553.84;434992;1259;138822;-67
2023/03/19 09:38:51;;;;;;;9.50;7.70;;;;;;;21.23;27.03;99551.39;435325;1259;138193;-68
2023/03/19 09:49:00;;;;;;;9.60;7.50;;;;;;;19.95;28.40;99546.78;435522;1259;138349;-67
2023/03/19 09:59:08;;;;;;;8.80;7.90;;;;;;;18.93;29.46;99541.45;435549;1259;141038;-67
2023/03/19 10:09:30;;;;;;;9.00;6.90;;;;;;;17.99;30.44;99538.09;435024;1259;138769;-69
2023/03/19 10:19:42;;;;;;;9.80;6.40;;;;;;;17.81;30.89;99541.59;435551;1258;138698;-68
2023/03/19 10:29:48;;;;;;;9.30;7.40;;;;;;;17.81;31.37;99539.63;435266;1259;138250;-67
2023/03/19 10:39:56;;;;;;;9.30;6.20;;;;;;;17.75;31.63;99539.84;435647;1258;139300;-68
2023/03/19 10:50:02;;;;;;;8.30;7.30;;;;;;;17.77;31.77;99529.75;435782;1259;138694;-69
2023/03/19 11:00:18;;;;;;;8.80;6.00;;;;;;;17.44;31.93;99521.86;435603;1254;138353;-68
2023/03/19 11:10:28;;;;;;;7.40;5.90;;;;;;;17.23;32.04;99507.01;435167;1260;138547;-67
2023/03/19 11:20:37;;;;;;;9.00;5.90;;;;;;;17.23;32.18;99498.89;436045;1259;138735;-68
2023/03/19 11:30:53;;;;;;;9.70;5.60;;;;;;;17.10;32.23;99491.75;435782;1258;138843;-67
2023/03/19 11:41:10;;;;;;;6.10;5.50;;;;;;;16.97;32.67;99491.73;436703;1259;138531;-68
2023/03/19 11:51:22;;;;;;;8.60;6.10;;;;;;;16.91;32.87;99477.34;435989;1259;138688;-68
2023/03/19 12:02:02;;;;;;;8.80;6.00;;;;;;;16.98;32.79;99465.64;435501;1258;139777;-68
2023/03/19 12:12:22;;;;;;;6.50;5.80;;;;;;;16.89;32.83;99462.71;434937;1259;138767;-69
2023/03/19 12:22:42;;;;;;;7.10;5.10;;;;;;;16.67;32.77;99460.85;435191;1254;139402;-68
2023/03/19 12:33:02;;;;;;;7.40;4.70;;;;;;;16.17;32.75;99459.28;435316;1259;138255;-68
2023/03/19 12:43:28;;;;;;;6.40;4.70;;;;;;;15.75;33.30;99445.66;435046;1259;138765;-68
2023/03/19 12:53:43;;;;;;;6.10;5.40;;;;;;;15.83;33.35;99441.59;435522;1259;139480;-68
2023/03/19 13:03:54;;;;;;;5.20;4.40;;;;;;;16.01;33.53;99440.59;435110;1257;138236;-68
2023/03/19 13:14:08;;;;;;;7.50;4.30;;;;;;;16.17;33.49;99436.36;435045;1259;138824;-67
2023/03/19 13:24:21;;;;;;;6.50;4.70;;;;;;;16.00;33.48;99436.23;435426;1254;138246;-69
2023/03/19 13:34:31;;;;;;;8.90;4.90;;;;;;;15.85;33.78;99425.23;435365;1255;138850;-67
2023/03/19 13:44:42;;;;;;;13.80;5.00;;;;;;;15.84;34.06;99423.21;435778;1259;138691;-66
2023/03/19 13:54:52;;;;;;;7.50;4.50;;;;;;;15.93;34.04;99416.39;435377;1254;139476;-67
2023/03/19 14:05:01;;;;;;;6.10;4.80;;;;;;;15.96;34.05;99414.33;435205;1254;139606;-67
2023/03/19 14:15:21;;;;;;;7.70;5.10;;;;;;;16.07;33.94;99401.73;435301;1254;138140;-67
2023/03/19 14:25:48;;;;;;;8.10;4.90;;;;;;;16.09;33.75;99389.16;434874;1258;138942;-67
2023/03/19 14:35:56;;;;;;;5.70;4.70;;;;;;;15.84;33.83;99384.16;434391;1260;138289;-66
2023/03/19 14:46:02;;;;;;;7.00;4.90;;;;;;;15.63;34.15;99376.49;434698;1258;142057;-66
2023/03/19 14:56:16;;;;;;;12.10;6.00;;;;;;;15.57;34.45;99376.33;434567;1257;138701;-66
2023/03/19 15:06:23;;;;;;;7.30;5.20;;;;;;;15.30;34.84;99383.16;434852;1254;139229;-65
2023/03/19 15:16:39;;;;;;;9.30;5.30;;;;;;;14.97;35.14;99385.02;434308;1257;138727;-66
2023/03/19 15:26:47;;;;;;;7.80;5.60;;;;;;;14.67;35.58;99386.05;434776;1255;140082;-66
2023/03/19 15:36:55;;;;;;;8.30;5.60;;;;;;;14.52;35.92;99388.52;434560;1258;138756;-66
2023/03/19 15:47:03;;;;;;;9.90;6.70;;;;;;;14.26;36.24;99395.29;434869;1258;141178;-68
2023/03/19 15:57:13;;;;;;;12.00;7.80;;;;;;;13.90;36.84;99409.98;436192;1259;138705;-67
2023/03/19 16:07:32;;;;;;;13.00;8.70;;;;;;;13.55;37.67;99414.35;436017;1254;138936;-68
2023/03/19 16:17:39;;;;;;;13.40;8.50;;;;;;;13.21;38.10;99419.55;436034;1254;138799;-67
2023/03/19 16:27:47;;;;;;;12.50;8.00;;;;;;;12.86;38.79;99424.84;435410;1254;140678;-66
2023/03/19 16:37:55;;;;;;;12.20;8.90;;;;;;;12.50;39.42;99426.67;435556;1254;139891;-68
2023/03/19 16:48:03;;;;;;;16.40;7.50;;;;;;;12.08;40.69;99433.38;436234;1254;139386;-68
2023/03/19 16:58:14;;;;;;;11.20;7.00;;;;;;;11.68;41.63;99436.23;435440;1259;138680;-65
2023/03/19 17:08:20;;;;;;;29.00;18.70;;;;;;;11.31;42.52;99445.06;436279;1254;139149;-66
2023/03/19 17:18:29;;;;;;;45.00;28.70;;;;;;;11.02;42.89;99453.91;434504;1256;139180;-67
2023/03/19 17:28:34;;;;;;;23.20;16.10;;;;;;;10.73;43.55;99452.67;435223;1254;141298;-66
2023/03/19 17:38:40;;;;;;;20.90;13.00;;;;;;;10.47;44.59;99450.16;434822;1259;140375;-66
2023/03/19 17:48:48;;;;;;;29.30;15.60;;;;;;;10.20;45.73;99454.70;434803;1254;140517;-67
2023/03/19 17:58:54;;;;;;;30.80;17.00;;;;;;;9.89;47.02;99447.07;438894;1254;139099;-66
2023/03/19 18:09:00;;;;;;;28.10;15.50;;;;;;;9.66;47.96;99442.52;435382;1256;139257;-67
2023/03/19 18:19:18;;;;;;;35.20;21.20;;;;;;;9.41;48.73;99443.86;435447;1258;140951;-66
2023/03/19 18:29:24;;;;;;;33.70;17.90;;;;;;;9.18;49.33;99449.80;435652;1254;139054;-67
2023/03/19 18:39:31;;;;;;;28.80;19.20;;;;;;;8.97;50.18;99448.09;435345;1255;138745;-67
2023/03/19 18:49:37;;;;;;;32.00;19.20;;;;;;;8.76;51.06;99450.38;435794;1255;140159;-68
2023/03/19 18:59:43;;;;;;;30.80;16.70;;;;;;;8.44;51.47;99456.71;435102;1259;138945;-67
2023/03/19 19:09:49;;;;;;;29.20;20.90;;;;;;;8.11;52.49;99464.48;435655;1256;141094;-67
2023/03/19 19:19:55;;;;;;;32.70;18.90;;;;;;;7.79;53.52;99454.90;436132;1258;138145;-67
2023/03/19 19:30:01;;;;;;;33.60;18.80;;;;;;;7.42;54.53;99447.46;435839;1256;139879;-67
2023/03/19 19:40:11;;;;;;;41.50;23.20;;;;;;;7.08;55.20;99450.79;436019;1254;140707;-67
2023/03/19 19:50:20;;;;;;;35.50;21.40;;;;;;;6.72;56.15;99457.61;436641;1258;138424;-68
2023/03/19 20:00:28;;;;;;;46.60;27.70;;;;;;;6.40;56.79;99458.70;435773;1259;140009;-68
2023/03/19 20:10:34;;;;;;;40.70;25.40;;;;;;;6.13;57.42;99461.18;436183;1259;138772;-66
2023/03/19 20:20:40;;;;;;;44.60;27.90;;;;;;;5.88;57.77;99466.33;436476;1254;140122;-68
2023/03/19 20:30:46;;;;;;;43.70;29.10;;;;;;;5.63;58.62;99460.84;435848;1254;138652;-66
2023/03/19 20:40:54;;;;;;;47.40;29.60;;;;;;;5.46;59.46;99463.88;435988;1259;139500;-68
2023/03/19 20:51:02;;;;;;;48.50;27.20;;;;;;;5.31;60.09;99461.77;435866;1254;139637;-67
2023/03/19 21:01:09;;;;;;;51.20;30.50;;;;;;;5.10;60.56;99458.84;435415;1259;138720;-65
2023/03/19 21:11:17;;;;;;;50.90;34.50;;;;;;;4.96;61.37;99458.93;435508;1254;139521;-66
2023/03/19 21:21:28;;;;;;;50.20;35.10;;;;;;;4.84;61.71;99462.38;435898;1254;141115;-66
2023/03/19 21:31:34;;;;;;;58.80;38.20;;;;;;;4.69;61.92;99468.75;435771;1258;140032;-67
2023/03/19 21:41:41;;;;;;;62.70;39.30;;;;;;;4.57;62.31;99468.88;435909;1254;140077;-67
2023/03/19 21:51:48;;;;;;;58.40;40.20;;;;;;;4.48;63.25;99464.17;435399;1258;140576;-66
2023/03/19 22:01:55;;;;;;;58.30;39.50;;;;;;;4.42;63.60;99460.80;438869;1254;140605;-66
2023/03/19 22:12:01;;;;;;;66.50;45.50;;;;;;;4.40;63.91;99457.41;435857;1254;139139;-66
2023/03/19 22:22:08;;;;;;;80.20;48.50;;;;;;;4.34;63.94;99456.09;435630;1256;140082;-66
2023/03/19 22:32:17;;;;;;;70.00;47.90;;;;;;;4.29;64.39;99453.16;436138;1254;139791;-65
2023/03/19 22:42:27;;;;;;;81.90;52.60;;;;;;;4.28;65.13;99448.55;436095;1259;140497;-66
2023/03/19 22:52:33;;;;;;;83.20;57.20;;;;;;;4.36;65.23;99444.40;435845;1254;139999;-66
2023/03/19 23:02:40;;;;;;;85.50;56.70;;;;;;;4.36;65.16;99445.09;435594;1255;139428;-66
2023/03/19 23:12:46;;;;;;;77.00;51.00;;;;;;;4.21;65.53;99443.46;435669;1256;139864;-66
2023/03/19 23:22:52;;;;;;;85.10;55.30;;;;;;;4.10;65.96;99438.36;435084;1259;139577;-67
2023/03/19 23:32:59;;;;;;;86.50;57.30;;;;;;;4.08;66.51;99428.38;435282;1259;140681;-66
2023/03/19 23:43:07;;;;;;;77.60;51.60;;;;;;;3.99;66.99;99421.25;435177;1258;140393;-66
2023/03/19 23:53:18;;;;;;;;;;;;;;;3.91;66.49;99423.45;435300;1259;139544;-65
